Time;durP1;ratioP1;P1;durP2;ratioP2;P2;SDS_P1;SDS_P2;PMS_P1;PMS_P2;Temp;Humidity;BMP_temperature;BMP_pressure;BME280_temperature;BME280_humidity;BME280_pressure;Samples;Min_cycle;Max_cycle;Signal;HPM_P1;HPM_P2
2023/05/10 00:01:10;;;;;;;;;;;;;;;12.15;94.01;95394.81;5072973;28;1029;-53
2023/05/10 00:03:36;;;;;;;;;;;;;;;12.11;95.44;95391.63;5073015;28;962;-53
2023/05/10 00:06:02;;;;;;;;;;;;;;;11.98;97.24;95386.72;5073025;28;1918;-53
2023/05/10 00:08:28;;;;;;;;;;;;;;;11.94;97.46;95385.38;5072957;28;1100;-53
2023/05/10 00:10:54;;;;;;;;;;;;;;;11.99;94.99;95382.19;5076824;28;984;-53
2023/05/10 00:13:20;;;;;;;;;;;;;;;12.08;94.34;95381.22;5076809;28;974;-53
2023/05/10 00:15:46;;;;;;;;;;;;;;;12.10;95.09;95374.69;5076569;28;1960;-53
2023/05/10 00:18:12;;;;;;;;;;;;;;;12.08;96.47;95375.84;5076824;28;1028;-52
2023/05/10 00:20:38;;;;;;;;;;;;;;;12.12;95.30;95377.19;5076449;28;1103;-53
2023/05/10 00:23:05;;;;;;;;;;;;;;;12.11;95.11;95373.69;5076685;28;1231;-53
2023/05/10 00:25:31;;;;;;;;;;;;;;;12.14;95.54;95377.91;5076356;28;1875;-53
2023/05/10 00:27:57;;;;;;;;;;;;;;;12.16;95.52;95381.25;5076406;28;1985;-53
2023/05/10 00:30:23;;;;;;;;;;;;;;;12.10;96.18;95380.06;5076389;28;1029;-53
2023/05/10 00:32:49;;;;;;;;;;;;;;;11.96;97.78;95382.53;5076176;28;961;-53
2023/05/10 00:35:15;;;;;;;;;;;;;;;11.95;96.76;95380.84;5076287;28;1158;-53
2023/05/10 00:37:42;;;;;;;;;;;;;;;11.97;96.88;95378.84;5076130;28;1081;-53
2023/05/10 00:40:08;;;;;;;;;;;;;;;11.98;97.11;95376.00;5076198;28;1941;-53
2023/05/10 00:42:34;;;;;;;;;;;;;;;11.98;96.18;95373.31;5076008;28;1111;-52
2023/05/10 00:45:00;;;;;;;;;;;;;;;11.82;98.00;95373.25;5076154;28;1036;-53
2023/05/10 00:47:26;;;;;;;;;;;;;;;11.82;97.78;95376.78;5075881;28;1987;-52
2023/05/10 00:49:52;;;;;;;;;;;;;;;11.75;97.91;95383.78;5076242;28;1005;-53
2023/05/10 00:52:19;;;;;;;;;;;;;;;11.73;97.94;95372.41;5076166;28;1028;-53
2023/05/10 00:54:46;;;;;;;;;;;;;;;11.84;96.66;95373.94;5076030;28;1002;-53
2023/05/10 00:57:12;;;;;;;;;;;;;;;11.65;95.74;95369.69;5075863;28;1497;-53
2023/05/10 00:59:38;;;;;;;;;;;;;;;11.65;96.22;95359.00;5075826;28;1052;-53
2023/05/10 01:02:04;;;;;;;;;;;;;;;11.58;97.04;95369.50;5075757;28;1074;-53
2023/05/10 01:04:30;;;;;;;;;;;;;;;11.55;98.03;95367.13;5075876;28;1025;-52
2023/05/10 01:06:56;;;;;;;;;;;;;;;11.45;97.08;95372.63;5075879;28;1910;-53
2023/05/10 01:09:22;;;;;;;;;;;;;;;11.48;97.28;95369.63;5075770;28;1080;-53
2023/05/10 01:11:48;;;;;;;;;;;;;;;11.55;96.62;95363.63;5075544;28;1100;-53
2023/05/10 01:14:15;;;;;;;;;;;;;;;11.44;95.49;95365.59;5075670;28;1028;-53
2023/05/10 01:16:41;;;;;;;;;;;;;;;11.23;97.35;95373.19;5075731;28;957;-53
2023/05/10 01:19:20;;;;;;;;;;;;;;;11.25;97.87;95357.81;5075659;28;985;-53
2023/05/10 01:21:49;;;;;;;;;;;;;;;11.31;97.86;95363.38;5075456;28;950;-53
2023/05/10 01:24:15;;;;;;;;;;;;;;;11.46;96.52;95362.78;5075642;28;1254;-53
2023/05/10 01:27:00;;;;;;;;;;;;;;;11.49;96.79;95360.59;5075470;28;1902;-53
2023/05/10 01:29:32;;;;;;;;;;;;;;;11.43;96.97;95363.91;5075621;28;949;-53
2023/05/10 01:31:58;;;;;;;;;;;;;;;11.51;97.28;95357.75;5075264;28;1084;-53
2023/05/10 01:34:27;;;;;;;;;;;;;;;11.50;96.64;95362.28;5075061;28;1124;-52
2023/05/10 01:36:53;;;;;;;;;;;;;;;11.62;96.53;95359.31;5057323;28;1162;-53
2023/05/10 01:39:31;;;;;;;;;;;;;;;11.67;95.49;95356.97;5075032;28;1093;-52
2023/05/10 01:42:03;;;;;;;;;;;;;;;11.68;94.97;95359.47;5075051;28;966;-53
2023/05/10 01:44:32;;;;;;;;;;;;;;;11.68;94.30;95354.13;5075184;28;1021;-52
2023/05/10 01:47:12;;;;;;;;;;;;;;;11.70;94.92;95356.63;5075115;28;2017;-53
2023/05/10 01:49:41;;;;;;;;;;;;;;;11.65;94.62;95350.97;5074997;28;981;-52
2023/05/10 01:52:12;;;;;;;;;;;;;;;11.63;95.20;95347.56;5074756;28;1505;-53
2023/05/10 01:54:41;;;;;;;;;;;;;;;11.65;94.74;95351.78;5074901;28;1052;-53
2023/05/10 01:57:08;;;;;;;;;;;;;;;11.66;94.29;95347.25;5074912;28;1086;-53
2023/05/10 01:59:36;;;;;;;;;;;;;;;11.66;93.98;95349.94;5074718;28;1020;-53
2023/05/10 02:02:04;;;;;;;;;;;;;;;11.60;93.62;95355.94;5074890;28;1067;-53
2023/05/10 02:04:31;;;;;;;;;;;;;;;11.57;94.40;95346.38;5074735;28;966;-53
2023/05/10 02:06:57;;;;;;;;;;;;;;;11.56;94.71;95350.06;5074741;28;1913;-53
2023/05/10 02:09:25;;;;;;;;;;;;;;;11.55;94.84;95358.28;5074671;28;1036;-53
2023/05/10 02:11:52;;;;;;;;;;;;;;;11.53;94.24;95353.06;5074268;28;1092;-53
2023/05/10 02:14:18;;;;;;;;;;;;;;;11.63;93.34;95353.78;5074677;28;973;-53
2023/05/10 02:16:45;;;;;;;;;;;;;;;11.66;92.77;95356.13;5074362;28;1051;-53
2023/05/10 02:19:13;;;;;;;;;;;;;;;11.63;92.55;95342.22;5074494;28;1033;-52
2023/05/10 02:21:40;;;;;;;;;;;;;;;11.64;92.50;95335.88;5074356;28;1064;-53
2023/05/10 02:24:08;;;;;;;;;;;;;;;11.61;92.59;95342.41;5074071;28;1218;-53
2023/05/10 02:26:35;;;;;;;;;;;;;;;11.51;92.33;95342.53;5056310;28;1906;-53
2023/05/10 02:29:03;;;;;;;;;;;;;;;11.48;93.29;95342.03;5074188;28;1022;-53
2023/05/10 02:31:31;;;;;;;;;;;;;;;11.49;92.89;95347.19;5073572;28;1062;-53
2023/05/10 02:33:58;;;;;;;;;;;;;;;11.42;93.32;95346.19;5073851;28;1033;-53
2023/05/10 02:36:24;;;;;;;;;;;;;;;11.32;95.41;95348.13;5073896;28;1332;-53
2023/05/10 02:38:51;;;;;;;;;;;;;;;11.29;95.32;95343.94;5074121;28;1059;-53
2023/05/10 02:41:18;;;;;;;;;;;;;;;11.27;94.55;95343.28;5074006;28;1032;-53
2023/05/10 02:43:44;;;;;;;;;;;;;;;11.33;94.45;95344.47;5073775;28;1045;-53
2023/05/10 02:46:10;;;;;;;;;;;;;;;11.37;93.18;95334.28;5073625;28;2004;-53
2023/05/10 02:48:36;;;;;;;;;;;;;;;11.43;94.09;95338.97;5073500;28;1021;-52
2023/05/10 02:51:05;;;;;;;;;;;;;;;11.32;94.33;95334.75;5073707;28;1572;-53
2023/05/10 02:53:31;;;;;;;;;;;;;;;11.29;94.62;95332.41;5073626;28;1053;-53
2023/05/10 02:56:00;;;;;;;;;;;;;;;11.36;94.03;95333.44;5073736;28;1040;-53
2023/05/10 02:58:26;;;;;;;;;;;;;;;11.41;94.73;95339.16;5073675;28;1044;-53
2023/05/10 03:00:52;;;;;;;;;;;;;;;11.45;93.23;95337.81;5073596;28;1226;-52
2023/05/10 03:03:19;;;;;;;;;;;;;;;11.44;91.98;95333.47;5073468;28;1044;-53
2023/05/10 03:05:45;;;;;;;;;;;;;;;11.30;91.57;95336.75;5073730;28;1048;-52
2023/05/10 03:08:11;;;;;;;;;;;;;;;11.28;92.52;95330.72;5073371;28;1977;-53
2023/05/10 03:10:54;;;;;;;;;;;;;;;11.32;92.58;95337.44;5073349;28;1934;-52
2023/05/10 03:13:35;;;;;;;;;;;;;;;11.21;94.54;95332.38;5073718;28;973;-53
2023/05/10 03:16:07;;;;;;;;;;;;;;;11.30;95.03;95334.91;5073354;28;1046;-53
2023/05/10 03:18:36;;;;;;;;;;;;;;;11.32;93.18;95332.94;5073471;28;1020;-53
2023/05/10 03:21:06;;;;;;;;;;;;;;;11.30;92.62;95340.25;5073527;28;1042;-53
2023/05/10 03:23:35;;;;;;;;;;;;;;;11.30;92.04;95337.59;5073252;28;1951;-53
2023/05/10 03:26:02;;;;;;;;;;;;;;;11.33;92.55;95331.09;5073321;28;1033;-53
2023/05/10 03:28:29;;;;;;;;;;;;;;;11.27;91.79;95332.56;5073100;28;2003;-53
2023/05/10 03:30:56;;;;;;;;;;;;;;;11.35;91.13;95336.28;5073427;28;1004;-53
2023/05/10 03:33:22;;;;;;;;;;;;;;;11.28;91.02;95334.22;5073304;28;1009;-53
2023/05/10 03:35:48;;;;;;;;;;;;;;;11.09;94.38;95343.34;5072998;28;1217;-53
2023/05/10 03:38:14;;;;;;;;;;;;;;;11.10;93.32;95339.69;5073137;28;1867;-53
2023/05/10 03:40:40;;;;;;;;;;;;;;;11.02;93.38;95342.31;5073071;28;1016;-53
2023/05/10 03:43:06;;;;;;;;;;;;;;;10.90;93.06;95352.44;5074641;28;1326;-53
2023/05/10 03:45:32;;;;;;;;;;;;;;;10.94;94.01;95351.13;5077527;28;977;-53
2023/05/10 03:47:58;;;;;;;;;;;;;;;11.04;94.21;95345.69;5077002;28;1914;-53
2023/05/10 03:50:24;;;;;;;;;;;;;;;11.01;94.47;95351.34;5077303;28;1017;-52
2023/05/10 03:52:50;;;;;;;;;;;;;;;11.04;94.10;95340.34;5077092;28;1050;-53
2023/05/10 03:55:16;;;;;;;;;;;;;;;11.08;93.55;95351.56;5077028;28;1048;-53
2023/05/10 03:57:42;;;;;;;;;;;;;;;11.13;94.66;95352.75;5076988;28;1052;-52
2023/05/10 04:00:09;;;;;;;;;;;;;;;11.13;91.69;95355.44;5076904;28;1025;-53
2023/05/10 04:02:35;;;;;;;;;;;;;;;11.20;92.53;95357.47;5077015;28;1012;-53
2023/05/10 04:05:02;;;;;;;;;;;;;;;11.14;93.02;95357.09;5077179;28;989;-53
2023/05/10 04:07:29;;;;;;;;;;;;;;;11.14;92.33;95351.75;5076730;28;1918;-53
2023/05/10 04:09:55;;;;;;;;;;;;;;;11.15;93.22;95363.28;5076766;28;1045;-53
2023/05/10 04:12:21;;;;;;;;;;;;;;;11.00;93.15;95365.69;5076621;28;970;-53
2023/05/10 04:14:47;;;;;;;;;;;;;;;11.06;93.59;95369.56;5076931;28;942;-54
2023/05/10 04:17:13;;;;;;;;;;;;;;;10.98;93.80;95373.06;5076610;28;1040;-53
2023/05/10 04:19:39;;;;;;;;;;;;;;;10.97;94.05;95365.22;5076826;28;1231;-53
2023/05/10 04:22:05;;;;;;;;;;;;;;;11.16;93.43;95366.81;5076535;28;1058;-53
2023/05/10 04:24:31;;;;;;;;;;;;;;;11.11;91.55;95367.28;5076698;28;1174;-53
2023/05/10 04:26:57;;;;;;;;;;;;;;;10.88;92.90;95372.31;5076377;28;1910;-53
2023/05/10 04:29:23;;;;;;;;;;;;;;;10.69;93.27;95366.19;5076334;28;1057;-53
2023/05/10 04:31:49;;;;;;;;;;;;;;;10.72;93.10;95363.19;5076555;28;1013;-53
2023/05/10 04:34:15;;;;;;;;;;;;;;;10.82;93.48;95368.44;5076411;28;1028;-53
2023/05/10 04:36:41;;;;;;;;;;;;;;;10.96;93.01;95364.34;5076052;28;1214;-53
2023/05/10 04:39:07;;;;;;;;;;;;;;;10.89;93.69;95371.34;5076205;28;1203;-53
2023/05/10 04:41:33;;;;;;;;;;;;;;;10.87;93.17;95375.97;5076062;28;1879;-53
2023/05/10 04:43:59;;;;;;;;;;;;;;;10.64;90.17;95370.31;5076378;28;1032;-53
2023/05/10 04:46:25;;;;;;;;;;;;;;;10.61;92.17;95368.81;5076124;28;1910;-55
2023/05/10 04:48:51;;;;;;;;;;;;;;;10.74;91.35;95368.41;5076233;28;1044;-53
2023/05/10 04:51:17;;;;;;;;;;;;;;;10.60;92.39;95379.66;5058214;28;1069;-53
2023/05/10 04:53:43;;;;;;;;;;;;;;;10.57;93.74;95371.94;5075883;28;1034;-55
2023/05/10 04:56:09;;;;;;;;;;;;;;;10.63;90.22;95366.81;5075231;28;1227;-54
2023/05/10 04:58:35;;;;;;;;;;;;;;;10.70;88.92;95375.91;5076102;28;953;-54
2023/05/10 05:01:04;;;;;;;;;;;;;;;10.73;92.19;95367.53;5075690;28;1100;-53
2023/05/10 05:03:31;;;;;;;;;;;;;;;10.67;90.38;95376.19;5057969;28;1199;-52
2023/05/10 05:05:57;;;;;;;;;;;;;;;10.65;89.51;95377.34;5075821;28;982;-53
2023/05/10 05:08:23;;;;;;;;;;;;;;;10.60;90.77;95385.00;5058127;28;1981;-53
2023/05/10 05:10:52;;;;;;;;;;;;;;;10.31;91.59;95378.09;5075574;28;969;-52
2023/05/10 05:13:18;;;;;;;;;;;;;;;10.39;94.33;95380.81;5075767;28;1049;-52
2023/05/10 05:15:44;;;;;;;;;;;;;;;10.50;95.16;95380.59;5075469;28;1042;-53
2023/05/10 05:18:10;;;;;;;;;;;;;;;10.45;94.45;95382.91;5075698;28;985;-53
2023/05/10 05:20:37;;;;;;;;;;;;;;;10.43;94.34;95376.84;5075462;28;1231;-52
2023/05/10 05:23:03;;;;;;;;;;;;;;;10.32;95.59;95369.91;5075425;28;1033;-55
2023/05/10 05:25:29;;;;;;;;;;;;;;;10.45;95.97;95388.25;5075196;28;1231;-54
2023/05/10 05:27:55;;;;;;;;;;;;;;;10.54;91.33;95386.47;5075506;28;1990;-54
2023/05/10 05:30:21;;;;;;;;;;;;;;;10.45;92.17;95387.38;5075081;28;1117;-55
2023/05/10 05:32:47;;;;;;;;;;;;;;;10.63;92.48;95396.22;5057522;28;1112;-54
2023/05/10 05:35:13;;;;;;;;;;;;;;;10.46;91.10;95392.59;5075303;28;1166;-54
2023/05/10 05:37:39;;;;;;;;;;;;;;;10.39;91.80;95394.19;5074920;28;1192;-54
2023/05/10 05:40:06;;;;;;;;;;;;;;;10.44;92.78;95401.75;5075016;28;1013;-55
2023/05/10 05:42:32;;;;;;;;;;;;;;;10.45;91.87;95390.06;5075190;28;1032;-54
2023/05/10 05:44:58;;;;;;;;;;;;;;;10.47;91.78;95402.28;5075025;28;1053;-54
2023/05/10 05:47:24;;;;;;;;;;;;;;;10.40;90.10;95398.56;5074920;28;1985;-54
2023/05/10 05:49:51;;;;;;;;;;;;;;;10.27;89.70;95400.75;5057426;28;1033;-54
2023/05/10 05:52:17;;;;;;;;;;;;;;;10.23;89.58;95410.91;5074830;28;1016;-54
2023/05/10 05:54:43;;;;;;;;;;;;;;;10.20;91.36;95403.16;5074690;28;1030;-54
2023/05/10 05:57:09;;;;;;;;;;;;;;;10.06;92.52;95398.38;5074966;28;1036;-54
2023/05/10 05:59:36;;;;;;;;;;;;;;;10.33;92.37;95402.81;5074896;28;1132;-54
2023/05/10 06:02:02;;;;;;;;;;;;;;;10.40;89.98;95403.06;5074904;28;977;-54
2023/05/10 06:04:28;;;;;;;;;;;;;;;10.44;90.79;95391.06;5074511;28;1876;-55
2023/05/10 06:06:54;;;;;;;;;;;;;;;10.38;89.75;95394.34;5073381;28;1983;-55
2023/05/10 06:09:20;;;;;;;;;;;;;;;10.51;90.59;95400.16;5056633;28;1113;-55
2023/05/10 06:11:46;;;;;;;;;;;;;;;10.61;90.19;95403.56;5074416;28;1101;-54
2023/05/10 06:14:13;;;;;;;;;;;;;;;10.55;89.42;95406.88;5074500;28;966;-55
2023/05/10 06:16:39;;;;;;;;;;;;;;;10.50;89.01;95404.63;5074273;28;1124;-55
2023/05/10 06:19:05;;;;;;;;;;;;;;;10.45;89.31;95406.09;5074290;28;1084;-55
2023/05/10 06:21:31;;;;;;;;;;;;;;;10.59;91.91;95407.41;5074429;28;1045;-55
2023/05/10 06:23:57;;;;;;;;;;;;;;;10.62;89.52;95410.56;5074153;28;1033;-53
2023/05/10 06:26:23;;;;;;;;;;;;;;;10.85;91.60;95410.06;5073957;28;1910;-53
2023/05/10 06:28:49;;;;;;;;;;;;;;;10.94;90.83;95422.53;5074066;28;1104;-53
2023/05/10 06:31:16;;;;;;;;;;;;;;;10.94;86.43;95422.53;5073887;28;1046;-53
2023/05/10 06:33:42;;;;;;;;;;;;;;;10.97;89.42;95424.91;5074070;28;1036;-52
2023/05/10 06:36:08;;;;;;;;;;;;;;;10.89;87.80;95419.50;5073750;28;1493;-53
2023/05/10 06:38:34;;;;;;;;;;;;;;;10.84;88.92;95424.47;5073968;28;970;-52
2023/05/10 06:41:00;;;;;;;;;;;;;;;10.93;90.99;95420.84;5074102;28;993;-53
2023/05/10 06:43:28;;;;;;;;;;;;;;;11.04;90.57;95420.59;5073717;28;1093;-52
2023/05/10 06:45:54;;;;;;;;;;;;;;;11.09;88.78;95418.28;5073878;28;997;-52
2023/05/10 06:48:20;;;;;;;;;;;;;;;11.24;88.19;95423.06;5073688;28;1910;-52
2023/05/10 06:50:46;;;;;;;;;;;;;;;11.44;90.65;95415.63;5073814;28;1180;-53
2023/05/10 06:53:13;;;;;;;;;;;;;;;11.58;88.74;95416.88;5073575;28;966;-53
2023/05/10 06:55:39;;;;;;;;;;;;;;;11.66;86.56;95416.91;5073926;28;1040;-53
2023/05/10 06:58:06;;;;;;;;;;;;;;;11.71;84.39;95418.09;5056091;28;981;-53
2023/05/10 07:00:32;;;;;;;;;;;;;;;11.84;86.00;95425.69;5073480;28;1021;-53
2023/05/10 07:02:58;;;;;;;;;;;;;;;11.89;85.28;95420.72;5055734;28;1046;-53
2023/05/10 07:05:24;;;;;;;;;;;;;;;11.64;82.75;95422.41;5073375;28;1053;-53
2023/05/10 07:07:51;;;;;;;;;;;;;;;11.39;85.94;95424.13;5073305;28;2000;-53
2023/05/10 07:10:17;;;;;;;;;;;;;;;11.33;86.09;95422.09;5073330;28;1058;-53
2023/05/10 07:12:43;;;;;;;;;;;;;;;11.37;86.49;95433.34;5073370;28;1879;-52
2023/05/10 07:15:09;;;;;;;;;;;;;;;11.49;87.56;95435.56;5073443;28;1029;-53
2023/05/10 07:17:35;;;;;;;;;;;;;;;11.39;87.21;95436.69;5073133;28;1018;-53
2023/05/10 07:20:03;;;;;;;;;;;;;;;11.36;86.80;95437.81;5073656;28;1045;-53
2023/05/10 07:22:29;;;;;;;;;;;;;;;11.29;86.48;95436.81;5073253;28;965;-52
2023/05/10 07:24:55;;;;;;;;;;;;;;;11.27;86.72;95436.13;5055760;28;977;-52
2023/05/10 07:27:22;;;;;;;;;;;;;;;11.30;85.83;95435.78;5073405;28;1914;-52
2023/05/10 07:33:11;;;;;;;;;;;;;;;11.22;85.65;95436.59;5073222;28;813;-52
2023/05/10 07:35:37;;;;;;;;;;;;;;;11.15;86.63;95440.88;5073351;28;1142;-53
2023/05/10 07:38:03;;;;;;;;;;;;;;;11.16;86.36;95439.06;5073014;28;1255;-52
2023/05/10 07:40:31;;;;;;;;;;;;;;;11.17;84.30;95440.72;5073234;28;1085;-52
2023/05/10 07:42:57;;;;;;;;;;;;;;;11.20;85.90;95443.94;5073104;28;1036;-53
2023/05/10 07:45:23;;;;;;;;;;;;;;;11.42;85.13;95439.91;5073139;28;1059;-53
2023/05/10 07:47:50;;;;;;;;;;;;;;;11.51;85.20;95449.66;5072870;28;1910;-53
2023/05/10 07:50:16;;;;;;;;;;;;;;;11.46;84.88;95445.78;5072951;28;1041;-53
2023/05/10 07:52:42;;;;;;;;;;;;;;;11.49;86.53;95448.13;5073256;28;1012;-52
2023/05/10 07:55:08;;;;;;;;;;;;;;;11.70;88.02;95447.72;5072987;28;1045;-52
2023/05/10 07:57:34;;;;;;;;;;;;;;;11.76;85.87;95454.25;5072881;28;1092;-53
2023/05/10 08:00:01;;;;;;;;;;;;;;;11.77;84.00;95447.91;5072892;28;1045;-52
2023/05/10 08:02:27;;;;;;;;;;;;;;;11.64;85.23;95457.22;5072747;28;1004;-53
2023/05/10 08:04:53;;;;;;;;;;;;;;;11.48;86.57;95457.16;5073122;28;993;-52
2023/05/10 08:07:19;;;;;;;;;;;;;;;11.37;88.12;95452.06;5072852;28;1991;-53
2023/05/10 08:09:45;;;;;;;;;;;;;;;11.44;88.42;95456.63;5072992;28;965;-53
2023/05/10 08:12:11;;;;;;;;;;;;;;;11.37;88.98;95458.25;5072978;28;1053;-53
2023/05/10 08:14:37;;;;;;;;;;;;;;;11.40;87.01;95460.63;5073017;28;969;-53
2023/05/10 08:17:03;;;;;;;;;;;;;;;11.57;88.50;95466.06;5072726;28;1009;-53
2023/05/10 08:19:29;;;;;;;;;;;;;;;11.75;87.08;95466.81;5072925;28;977;-53
2023/05/10 08:21:56;;;;;;;;;;;;;;;11.82;87.55;95465.19;5072935;28;1001;-53
2023/05/10 08:24:22;;;;;;;;;;;;;;;11.85;86.79;95462.16;5072877;28;1045;-53
2023/05/10 08:26:48;;;;;;;;;;;;;;;11.73;88.25;95455.44;5072598;28;1980;-53
2023/05/10 08:29:14;;;;;;;;;;;;;;;11.81;90.77;95455.47;5072818;28;980;-53
2023/05/10 08:31:40;;;;;;;;;;;;;;;11.88;90.80;95458.34;5076103;28;1112;-53
2023/05/10 08:34:07;;;;;;;;;;;;;;;11.71;87.09;95460.94;5076320;28;1037;-53
2023/05/10 08:36:33;;;;;;;;;;;;;;;11.61;88.03;95456.69;5076162;28;1134;-53
2023/05/10 08:38:59;;;;;;;;;;;;;;;11.68;87.23;95461.25;5076214;28;1045;-53
2023/05/10 08:41:27;;;;;;;;;;;;;;;11.92;87.98;95457.03;5076164;28;1092;-54
2023/05/10 08:43:54;;;;;;;;;;;;;;;11.95;87.74;95462.09;5076061;28;1037;-54
2023/05/10 08:46:21;;;;;;;;;;;;;;;12.02;86.38;95460.41;5075950;28;1025;-54
2023/05/10 08:48:49;;;;;;;;;;;;;;;12.12;86.87;95460.28;5076049;28;1879;-53
2023/05/10 08:51:17;;;;;;;;;;;;;;;12.18;86.71;95467.69;5076109;28;977;-54
2023/05/10 08:53:44;;;;;;;;;;;;;;;12.17;88.83;95468.69;5076039;28;1017;-54
2023/05/10 08:56:10;;;;;;;;;;;;;;;11.97;88.39;95476.16;5076112;28;975;-54
2023/05/10 08:58:37;;;;;;;;;;;;;;;12.17;88.35;95476.72;5075777;28;1028;-52
2023/05/10 09:01:04;;;;;;;;;;;;;;;12.28;88.00;95471.06;5076154;28;966;-53
2023/05/10 09:03:31;;;;;;;;;;;;;;;12.42;89.06;95468.75;5075677;28;1886;-53
2023/05/10 09:05:57;;;;;;;;;;;;;;;12.39;89.12;95463.72;5076062;28;1132;-53
2023/05/10 09:08:27;;;;;;;;;;;;;;;12.26;89.16;95475.75;5075530;28;1914;-53
2023/05/10 09:10:56;;;;;;;;;;;;;;;12.32;90.69;95476.94;5075594;28;2520;-53
2023/05/10 09:13:23;;;;;;;;;;;;;;;12.38;92.93;95472.75;5075358;28;1104;-53
2023/05/10 09:15:49;;;;;;;;;;;;;;;12.33;90.83;95472.41;5075821;28;982;-53
2023/05/10 09:18:15;;;;;;;;;;;;;;;12.51;91.02;95473.13;5075434;28;1045;-53
2023/05/10 09:20:41;;;;;;;;;;;;;;;12.41;87.75;95467.09;5057998;28;966;-53
2023/05/10 09:23:07;;;;;;;;;;;;;;;12.47;89.48;95471.78;5075802;28;989;-53
2023/05/10 09:25:33;;;;;;;;;;;;;;;12.65;89.94;95474.31;5075281;28;1074;-53
2023/05/10 09:27:59;;;;;;;;;;;;;;;12.62;89.58;95475.47;5075092;28;1993;-53
2023/05/10 09:30:27;;;;;;;;;;;;;;;12.62;89.31;95466.59;5075525;28;1047;-53
2023/05/10 09:32:53;;;;;;;;;;;;;;;12.56;89.19;95465.44;5075601;28;973;-53
2023/05/10 09:35:20;;;;;;;;;;;;;;;12.56;89.39;95459.19;5075032;28;1222;-52
2023/05/10 09:37:48;;;;;;;;;;;;;;;12.71;86.64;95457.56;5075072;28;1078;-53
2023/05/10 09:40:15;;;;;;;;;;;;;;;12.68;84.10;95455.22;5075016;28;973;-53
2023/05/10 09:43:01;;;;;;;;;;;;;;;12.60;85.46;95453.34;5075108;28;1032;-53
2023/05/10 09:45:29;;;;;;;;;;;;;;;12.65;83.17;95456.38;5074857;28;1182;-54
2023/05/10 09:47:56;;;;;;;;;;;;;;;12.68;83.24;95449.84;5074853;28;1993;-53
2023/05/10 09:50:23;;;;;;;;;;;;;;;12.91;86.10;95446.50;5075145;28;964;-53
2023/05/10 09:52:49;;;;;;;;;;;;;;;12.85;83.60;95442.63;5074863;28;975;-53
2023/05/10 09:55:15;;;;;;;;;;;;;;;12.88;85.95;95448.50;5074698;28;1027;-53
2023/05/10 09:57:42;;;;;;;;;;;;;;;12.81;82.30;95446.66;5074998;28;1112;-53
2023/05/10 10:00:09;;;;;;;;;;;;;;;12.69;84.01;95443.44;5074945;28;1021;-54
2023/05/10 10:02:36;;;;;;;;;;;;;;;12.88;86.47;95453.88;5074789;28;981;-53
2023/05/10 10:05:03;;;;;;;;;;;;;;;12.91;83.40;95452.69;5074875;28;973;-54
2023/05/10 10:07:29;;;;;;;;;;;;;;;13.08;84.99;95443.63;5074455;28;1906;-53
2023/05/10 10:09:55;;;;;;;;;;;;;;;13.07;85.14;95449.16;5056789;28;1053;-54
2023/05/10 10:12:21;;;;;;;;;;;;;;;13.15;85.60;95443.78;5074284;28;1041;-54
2023/05/10 10:14:49;;;;;;;;;;;;;;;13.16;82.87;95444.63;5074704;28;977;-54
2023/05/10 10:17:15;;;;;;;;;;;;;;;13.22;86.51;95439.41;5074295;28;1033;-53
2023/05/10 10:19:41;;;;;;;;;;;;;;;13.32;86.80;95433.91;5074320;28;1086;-54
2023/05/10 10:22:10;;;;;;;;;;;;;;;13.28;85.99;95443.28;5074360;28;1061;-53
2023/05/10 10:24:36;;;;;;;;;;;;;;;12.88;84.09;95439.59;5074175;28;1064;-53
2023/05/10 10:27:18;;;;;;;;;;;;;;;12.76;87.01;95433.72;5074215;28;1902;-53
2023/05/10 10:29:45;;;;;;;;;;;;;;;13.03;83.73;95431.72;5074147;28;1077;-54
2023/05/10 10:32:14;;;;;;;;;;;;;;;13.18;85.41;95437.22;5074072;28;1024;-53
2023/05/10 10:34:40;;;;;;;;;;;;;;;13.07;82.65;95431.22;5074147;28;1211;-53
2023/05/10 10:37:06;;;;;;;;;;;;;;;12.83;85.35;95434.75;5073655;28;1228;-54
2023/05/10 10:39:32;;;;;;;;;;;;;;;12.98;86.62;95434.09;5074044;28;1051;-53
2023/05/10 10:41:59;;;;;;;;;;;;;;;12.84;87.07;95419.47;5074123;28;1064;-54
2023/05/10 10:44:27;;;;;;;;;;;;;;;12.90;83.83;95432.25;5074002;28;1047;-54
2023/05/10 10:47:05;;;;;;;;;;;;;;;12.75;85.04;95434.75;5073674;28;1992;-54
2023/05/10 10:49:33;;;;;;;;;;;;;;;12.87;86.32;95440.63;5073860;28;1021;-54
2023/05/10 10:52:17;;;;;;;;;;;;;;;13.11;88.06;95442.47;5073759;28;1048;-54
2023/05/10 10:55:09;;;;;;;;;;;;;;;13.14;82.58;95443.94;5073572;28;1025;-54
2023/05/10 10:57:42;;;;;;;;;;;;;;;12.87;81.21;95433.41;5070728;28;1868;-54
2023/05/10 11:00:20;;;;;;;;;;;;;;;12.88;85.87;95437.78;5073763;28;986;-54
2023/05/10 11:02:51;;;;;;;;;;;;;;;13.01;83.54;95437.28;5073742;28;957;-54
2023/05/10 11:05:35;;;;;;;;;;;;;;;12.80;85.62;95435.06;5073765;28;1061;-54
2023/05/10 11:08:10;;;;;;;;;;;;;;;12.79;85.93;95437.94;5073390;28;1926;-54
2023/05/10 11:10:36;;;;;;;;;;;;;;;12.80;86.72;95437.75;5073438;28;1028;-53
2023/05/10 11:13:06;;;;;;;;;;;;;;;12.96;85.50;95439.63;5055854;28;962;-54
2023/05/10 11:15:33;;;;;;;;;;;;;;;12.98;82.94;95434.91;5073297;28;1037;-54
2023/05/10 11:17:59;;;;;;;;;;;;;;;13.05;83.41;95437.75;5073668;28;958;-54
2023/05/10 11:20:38;;;;;;;;;;;;;;;13.15;83.12;95446.47;5073221;28;1041;-54
2023/05/10 11:23:10;;;;;;;;;;;;;;;13.17;82.27;95436.41;5073535;28;1029;-54
2023/05/10 11:25:40;;;;;;;;;;;;;;;12.92;85.23;95432.03;5073636;28;1017;-54
2023/05/10 11:28:07;;;;;;;;;;;;;;;12.66;84.68;95425.03;5073702;28;1926;-54
2023/05/10 11:30:33;;;;;;;;;;;;;;;12.81;86.21;95427.88;5073199;28;934;-54
2023/05/10 11:32:59;;;;;;;;;;;;;;;12.97;84.26;95430.53;5073337;28;1049;-54
2023/05/10 11:35:27;;;;;;;;;;;;;;;13.06;84.22;95428.69;5073057;28;1143;-53
2023/05/10 11:37:53;;;;;;;;;;;;;;;13.15;86.38;95432.22;5073149;28;1208;-54
2023/05/10 11:40:21;;;;;;;;;;;;;;;13.31;85.32;95431.38;5073115;28;1096;-54
2023/05/10 11:42:47;;;;;;;;;;;;;;;13.44;84.74;95427.13;5073246;28;943;-54
2023/05/10 11:45:13;;;;;;;;;;;;;;;13.54;83.71;95435.00;5055270;28;1116;-54
2023/05/10 11:47:40;;;;;;;;;;;;;;;13.66;83.64;95435.47;5055222;28;1906;-54
2023/05/10 11:50:07;;;;;;;;;;;;;;;13.53;82.76;95430.66;5073007;28;1041;-54
2023/05/10 11:52:37;;;;;;;;;;;;;;;13.54;84.60;95434.16;5072957;28;1049;-54
2023/05/10 11:55:03;;;;;;;;;;;;;;;13.58;84.62;95427.44;5073278;28;1025;-54
2023/05/10 11:57:31;;;;;;;;;;;;;;;13.59;84.90;95434.50;5072870;28;1116;-53
2023/05/10 11:59:57;;;;;;;;;;;;;;;13.53;82.47;95437.88;5072964;28;1072;-54
2023/05/10 12:02:23;;;;;;;;;;;;;;;13.61;82.32;95432.47;5072057;28;1120;-53
2023/05/10 12:04:50;;;;;;;;;;;;;;;13.39;81.72;95429.53;5073007;28;1583;-54
2023/05/10 12:07:17;;;;;;;;;;;;;;;13.45;84.40;95428.81;5077014;28;1989;-54
2023/05/10 12:09:44;;;;;;;;;;;;;;;13.59;85.37;95423.75;5077029;28;1001;-54
2023/05/10 12:12:15;;;;;;;;;;;;;;;13.72;83.89;95418.66;5076831;28;977;-54
2023/05/10 12:14:41;;;;;;;;;;;;;;;13.77;81.44;95427.03;5076496;28;1996;-54
2023/05/10 12:17:11;;;;;;;;;;;;;;;13.75;85.11;95412.91;5059236;28;1021;-53
2023/05/10 12:19:38;;;;;;;;;;;;;;;13.84;84.47;95422.63;5076841;28;1040;-54
2023/05/10 12:22:05;;;;;;;;;;;;;;;13.87;82.15;95416.09;5076469;28;1037;-54
2023/05/10 12:24:33;;;;;;;;;;;;;;;13.76;83.24;95413.78;5076124;28;1215;-54
2023/05/10 12:26:59;;;;;;;;;;;;;;;13.62;84.30;95412.63;5076235;28;1913;-54
2023/05/10 12:29:25;;;;;;;;;;;;;;;13.52;83.43;95401.25;5058658;28;1101;-54
2023/05/10 12:31:52;;;;;;;;;;;;;;;13.62;86.07;95404.56;5076533;28;974;-54
2023/05/10 12:34:25;;;;;;;;;;;;;;;13.63;87.18;95401.72;5075862;28;1327;-54
2023/05/10 12:36:55;;;;;;;;;;;;;;;13.56;86.05;95398.03;5075951;28;1259;-54
2023/05/10 12:39:21;;;;;;;;;;;;;;;13.41;85.29;95395.28;5075942;28;1046;-54
2023/05/10 12:41:47;;;;;;;;;;;;;;;13.55;87.55;95399.06;5076036;28;1041;-54
2023/05/10 12:44:14;;;;;;;;;;;;;;;13.68;85.79;95398.53;5074129;28;1049;-54
2023/05/10 12:46:40;;;;;;;;;;;;;;;13.86;84.86;95393.72;5055936;28;1906;-54
2023/05/10 12:49:06;;;;;;;;;;;;;;;13.82;85.54;95386.19;5056281;28;973;-54
2023/05/10 12:51:32;;;;;;;;;;;;;;;13.80;84.51;95389.06;5055849;28;1579;-54
2023/05/10 12:53:58;;;;;;;;;;;;;;;13.85;84.07;95386.69;5056098;28;961;-54
2023/05/10 12:56:25;;;;;;;;;;;;;;;13.78;85.79;95385.72;5055701;28;1107;-54
2023/05/10 12:58:51;;;;;;;;;;;;;;;13.71;84.45;95384.72;5055856;28;1012;-54
2023/05/10 13:01:17;;;;;;;;;;;;;;;13.76;84.95;95379.66;5037886;28;1081;-54